sensor_id;sensor_type;location;lat;lon;timestamp;P1;durP1;ratioP1;P2;durP2;ratioP2
7621;SDS011;3852;52.284;8.032;2022-12-08T00:01:08;24.60;;;17.13;;
7621;SDS011;3852;52.284;8.032;2022-12-08T00:03:37;22.20;;;16.07;;
7621;SDS011;3852;52.284;8.032;2022-12-08T00:06:04;20.40;;;16.23;;
7621;SDS011;3852;52.284;8.032;2022-12-08T00:08:51;22.47;;;15.97;;
7621;SDS011;3852;52.284;8.032;2022-12-08T00:11:35;25.87;;;17.27;;
7621;SDS011;3852;52.284;8.032;2022-12-08T00:14:03;27.80;;;16.50;;
7621;SDS011;3852;52.284;8.032;2022-12-08T00:16:29;20.17;;;15.67;;
7621;SDS011;3852;52.284;8.032;2022-12-08T00:18:55;26.53;;;16.30;;
7621;SDS011;3852;52.284;8.032;2022-12-08T00:21:21;21.47;;;16.10;;
7621;SDS011;3852;52.284;8.032;2022-12-08T00:23:46;22.93;;;15.57;;
7621;SDS011;3852;52.284;8.032;2022-12-08T00:26:12;21.20;;;15.90;;
7621;SDS011;3852;52.284;8.032;2022-12-08T00:28:38;23.17;;;15.70;;
7621;SDS011;3852;52.284;8.032;2022-12-08T00:31:08;24.57;;;14.83;;
7621;SDS011;3852;52.284;8.032;2022-12-08T00:33:35;20.93;;;15.10;;
7621;SDS011;3852;52.284;8.032;2022-12-08T00:36:08;21.43;;;15.33;;
7621;SDS011;3852;52.284;8.032;2022-12-08T00:38:37;19.17;;;14.33;;
7621;SDS011;3852;52.284;8.032;2022-12-08T00:41:06;19.80;;;14.17;;
7621;SDS011;3852;52.284;8.032;2022-12-08T00:43:37;19.97;;;14.53;;
7621;SDS011;3852;52.284;8.032;2022-12-08T00:46:03;18.93;;;13.70;;
7621;SDS011;3852;52.284;8.032;2022-12-08T00:48:29;21.73;;;15.17;;
7621;SDS011;3852;52.284;8.032;2022-12-08T00:50:55;18.57;;;13.80;;
7621;SDS011;3852;52.284;8.032;2022-12-08T00:53:20;20.90;;;15.07;;
7621;SDS011;3852;52.284;8.032;2022-12-08T00:55:46;22.27;;;14.27;;
7621;SDS011;3852;52.284;8.032;2022-12-08T00:58:12;20.30;;;14.60;;
7621;SDS011;3852;52.284;8.032;2022-12-08T01:00:41;20.57;;;13.90;;
7621;SDS011;3852;52.284;8.032;2022-12-08T01:03:08;23.40;;;15.10;;
7621;SDS011;3852;52.284;8.032;2022-12-08T01:05:35;21.80;;;14.27;;
7621;SDS011;3852;52.284;8.032;2022-12-08T01:08:03;20.23;;;14.73;;
7621;SDS011;3852;52.284;8.032;2022-12-08T01:10:30;19.03;;;14.17;;
7621;SDS011;3852;52.284;8.032;2022-12-08T01:12:59;19.23;;;14.30;;
7621;SDS011;3852;52.284;8.032;2022-12-08T01:15:25;21.40;;;15.10;;
7621;SDS011;3852;52.284;8.032;2022-12-08T01:17:51;23.70;;;15.43;;
7621;SDS011;3852;52.284;8.032;2022-12-08T01:20:17;17.77;;;14.23;;
7621;SDS011;3852;52.284;8.032;2022-12-08T01:22:43;20.17;;;15.03;;
7621;SDS011;3852;52.284;8.032;2022-12-08T01:25:08;21.93;;;15.40;;
7621;SDS011;3852;52.284;8.032;2022-12-08T01:27:34;22.10;;;15.33;;
7621;SDS011;3852;52.284;8.032;2022-12-08T01:30:00;23.80;;;15.63;;
7621;SDS011;3852;52.284;8.032;2022-12-08T01:32:26;25.90;;;15.87;;
7621;SDS011;3852;52.284;8.032;2022-12-08T01:34:52;25.00;;;17.43;;
7621;SDS011;3852;52.284;8.032;2022-12-08T01:37:17;22.77;;;17.10;;
7621;SDS011;3852;52.284;8.032;2022-12-08T01:39:44;24.30;;;16.90;;
7621;SDS011;3852;52.284;8.032;2022-12-08T01:42:20;25.30;;;17.63;;
7621;SDS011;3852;52.284;8.032;2022-12-08T01:47:23;30.67;;;19.50;;
7621;SDS011;3852;52.284;8.032;2022-12-08T01:50:01;30.13;;;19.87;;
7621;SDS011;3852;52.284;8.032;2022-12-08T01:52:31;28.43;;;20.37;;
7621;SDS011;3852;52.284;8.032;2022-12-08T01:55:05;30.93;;;21.47;;
7621;SDS011;3852;52.284;8.032;2022-12-08T01:57:57;32.57;;;21.20;;
7621;SDS011;3852;52.284;8.032;2022-12-08T02:00:32;34.43;;;22.10;;
7621;SDS011;3852;52.284;8.032;2022-12-08T02:02:59;31.50;;;23.03;;
7621;SDS011;3852;52.284;8.032;2022-12-08T02:05:50;34.57;;;22.93;;
7621;SDS011;3852;52.284;8.032;2022-12-08T02:08:17;39.23;;;23.33;;
7621;SDS011;3852;52.284;8.032;2022-12-08T02:10:45;39.50;;;24.70;;
7621;SDS011;3852;52.284;8.032;2022-12-08T02:13:12;33.90;;;23.53;;
7621;SDS011;3852;52.284;8.032;2022-12-08T02:35:08;43.73;;;26.10;;
7621;SDS011;3852;52.284;8.032;2022-12-08T02:44:11;42.57;;;24.40;;
7621;SDS011;3852;52.284;8.032;2022-12-08T02:47:09;39.87;;;26.47;;
7621;SDS011;3852;52.284;8.032;2022-12-08T02:49:39;46.27;;;27.17;;
7621;SDS011;3852;52.284;8.032;2022-12-08T02:52:07;45.97;;;26.70;;
7621;SDS011;3852;52.284;8.032;2022-12-08T02:54:36;43.47;;;26.90;;
7621;SDS011;3852;52.284;8.032;2022-12-08T03:08:33;42.47;;;25.77;;
7621;SDS011;3852;52.284;8.032;2022-12-08T03:11:18;44.27;;;26.40;;
7621;SDS011;3852;52.284;8.032;2022-12-08T03:13:53;41.63;;;26.90;;
7621;SDS011;3852;52.284;8.032;2022-12-08T03:16:29;40.77;;;25.47;;
7621;SDS011;3852;52.284;8.032;2022-12-08T03:19:02;39.90;;;25.47;;
7621;SDS011;3852;52.284;8.032;2022-12-08T03:21:36;42.13;;;26.73;;
7621;SDS011;3852;52.284;8.032;2022-12-08T03:24:03;41.33;;;26.67;;
7621;SDS011;3852;52.284;8.032;2022-12-08T03:27:15;49.70;;;27.20;;
7621;SDS011;3852;52.284;8.032;2022-12-08T03:29:29;42.80;;;27.10;;
7621;SDS011;3852;52.284;8.032;2022-12-08T03:31:58;39.73;;;25.90;;
7621;SDS011;3852;52.284;8.032;2022-12-08T03:34:36;39.37;;;25.57;;
7621;SDS011;3852;52.284;8.032;2022-12-08T03:37:04;41.03;;;26.27;;
7621;SDS011;3852;52.284;8.032;2022-12-08T03:39:33;40.77;;;26.73;;
7621;SDS011;3852;52.284;8.032;2022-12-08T03:41:58;38.10;;;25.60;;
7621;SDS011;3852;52.284;8.032;2022-12-08T03:44:24;41.57;;;26.53;;
7621;SDS011;3852;52.284;8.032;2022-12-08T03:46:52;42.57;;;26.33;;
7621;SDS011;3852;52.284;8.032;2022-12-08T03:49:18;38.30;;;26.30;;
7621;SDS011;3852;52.284;8.032;2022-12-08T03:51:44;40.30;;;25.23;;
7621;SDS011;3852;52.284;8.032;2022-12-08T03:54:09;40.30;;;26.17;;
7621;SDS011;3852;52.284;8.032;2022-12-08T03:56:36;38.30;;;25.13;;
7621;SDS011;3852;52.284;8.032;2022-12-08T03:59:04;35.03;;;24.20;;
7621;SDS011;3852;52.284;8.032;2022-12-08T04:01:31;38.67;;;24.70;;
7621;SDS011;3852;52.284;8.032;2022-12-08T04:03:57;37.77;;;24.97;;
7621;SDS011;3852;52.284;8.032;2022-12-08T04:06:23;36.97;;;24.23;;
7621;SDS011;3852;52.284;8.032;2022-12-08T04:08:49;32.67;;;22.43;;
7621;SDS011;3852;52.284;8.032;2022-12-08T04:11:16;31.33;;;21.40;;
7621;SDS011;3852;52.284;8.032;2022-12-08T04:13:43;34.70;;;23.07;;
7621;SDS011;3852;52.284;8.032;2022-12-08T04:16:20;35.70;;;23.63;;
7621;SDS011;3852;52.284;8.032;2022-12-08T04:18:48;33.53;;;23.87;;
7621;SDS011;3852;52.284;8.032;2022-12-08T04:21:15;34.37;;;23.23;;
7621;SDS011;3852;52.284;8.032;2022-12-08T04:23:41;38.57;;;23.70;;
7621;SDS011;3852;52.284;8.032;2022-12-08T04:26:07;33.53;;;23.03;;
7621;SDS011;3852;52.284;8.032;2022-12-08T04:28:33;33.10;;;22.13;;
7621;SDS011;3852;52.284;8.032;2022-12-08T04:30:59;33.40;;;23.83;;
7621;SDS011;3852;52.284;8.032;2022-12-08T04:33:29;32.17;;;23.30;;
7621;SDS011;3852;52.284;8.032;2022-12-08T04:35:55;35.17;;;23.47;;
7621;SDS011;3852;52.284;8.032;2022-12-08T04:38:21;33.07;;;22.00;;
7621;SDS011;3852;52.284;8.032;2022-12-08T04:40:47;32.50;;;22.83;;
7621;SDS011;3852;52.284;8.032;2022-12-08T04:43:13;34.33;;;22.60;;
7621;SDS011;3852;52.284;8.032;2022-12-08T04:45:41;34.40;;;22.30;;
7621;SDS011;3852;52.284;8.032;2022-12-08T04:48:07;32.97;;;21.60;;
7621;SDS011;3852;52.284;8.032;2022-12-08T04:50:33;32.17;;;21.13;;
7621;SDS011;3852;52.284;8.032;2022-12-08T04:52:59;34.20;;;22.10;;
7621;SDS011;3852;52.284;8.032;2022-12-08T04:55:25;30.37;;;20.53;;
7621;SDS011;3852;52.284;8.032;2022-12-08T04:57:51;27.83;;;20.47;;
7621;SDS011;3852;52.284;8.032;2022-12-08T05:00:17;28.27;;;19.67;;
7621;SDS011;3852;52.284;8.032;2022-12-08T05:02:43;27.27;;;19.50;;
7621;SDS011;3852;52.284;8.032;2022-12-08T05:05:09;27.83;;;19.23;;
7621;SDS011;3852;52.284;8.032;2022-12-08T05:07:35;27.20;;;19.07;;
7621;SDS011;3852;52.284;8.032;2022-12-08T05:10:00;24.23;;;17.93;;
7621;SDS011;3852;52.284;8.032;2022-12-08T05:12:27;26.93;;;19.37;;
7621;SDS011;3852;52.284;8.032;2022-12-08T05:14:53;24.77;;;18.70;;
7621;SDS011;3852;52.284;8.032;2022-12-08T05:17:19;28.30;;;18.37;;
7621;SDS011;3852;52.284;8.032;2022-12-08T05:19:44;29.70;;;19.90;;
7621;SDS011;3852;52.284;8.032;2022-12-08T05:22:10;26.47;;;18.73;;
7621;SDS011;3852;52.284;8.032;2022-12-08T05:24:36;28.33;;;19.73;;
7621;SDS011;3852;52.284;8.032;2022-12-08T05:27:02;26.43;;;18.47;;
7621;SDS011;3852;52.284;8.032;2022-12-08T05:29:28;25.47;;;18.70;;
7621;SDS011;3852;52.284;8.032;2022-12-08T05:31:54;25.53;;;18.97;;
7621;SDS011;3852;52.284;8.032;2022-12-08T05:34:20;23.50;;;18.63;;
7621;SDS011;3852;52.284;8.032;2022-12-08T05:36:46;27.10;;;18.00;;
7621;SDS011;3852;52.284;8.032;2022-12-08T05:39:12;23.93;;;18.40;;
7621;SDS011;3852;52.284;8.032;2022-12-08T05:41:39;24.40;;;18.73;;
7621;SDS011;3852;52.284;8.032;2022-12-08T05:44:05;23.17;;;17.57;;
7621;SDS011;3852;52.284;8.032;2022-12-08T05:46:32;25.57;;;18.70;;
7621;SDS011;3852;52.284;8.032;2022-12-08T05:48:58;24.80;;;17.73;;
7621;SDS011;3852;52.284;8.032;2022-12-08T05:51:25;25.70;;;18.50;;
7621;SDS011;3852;52.284;8.032;2022-12-08T05:53:52;25.97;;;18.10;;
7621;SDS011;3852;52.284;8.032;2022-12-08T05:56:18;23.43;;;17.03;;
7621;SDS011;3852;52.284;8.032;2022-12-08T05:58:45;25.57;;;18.77;;
7621;SDS011;3852;52.284;8.032;2022-12-08T06:01:18;24.17;;;18.43;;
7621;SDS011;3852;52.284;8.032;2022-12-08T06:03:50;23.77;;;16.77;;
7621;SDS011;3852;52.284;8.032;2022-12-08T06:06:16;22.20;;;17.60;;
7621;SDS011;3852;52.284;8.032;2022-12-08T06:08:43;23.47;;;16.60;;
7621;SDS011;3852;52.284;8.032;2022-12-08T06:11:09;22.83;;;16.87;;
7621;SDS011;3852;52.284;8.032;2022-12-08T06:13:35;26.17;;;17.10;;
7621;SDS011;3852;52.284;8.032;2022-12-08T06:16:04;24.97;;;16.77;;
7621;SDS011;3852;52.284;8.032;2022-12-08T06:18:31;22.67;;;16.23;;
7621;SDS011;3852;52.284;8.032;2022-12-08T06:21:04;24.27;;;16.73;;
7621;SDS011;3852;52.284;8.032;2022-12-08T06:23:32;22.13;;;15.67;;
7621;SDS011;3852;52.284;8.032;2022-12-08T06:26:05;24.10;;;16.33;;
7621;SDS011;3852;52.284;8.032;2022-12-08T06:28:39;23.90;;;16.33;;
7621;SDS011;3852;52.284;8.032;2022-12-08T06:31:10;22.93;;;16.90;;
7621;SDS011;3852;52.284;8.032;2022-12-08T06:33:42;26.67;;;16.77;;
7621;SDS011;3852;52.284;8.032;2022-12-08T06:36:09;22.50;;;15.40;;
7621;SDS011;3852;52.284;8.032;2022-12-08T06:38:38;21.73;;;15.80;;
7621;SDS011;3852;52.284;8.032;2022-12-08T06:41:04;22.43;;;15.27;;
7621;SDS011;3852;52.284;8.032;2022-12-08T06:43:30;21.83;;;15.23;;
7621;SDS011;3852;52.284;8.032;2022-12-08T06:45:57;23.97;;;15.37;;
7621;SDS011;3852;52.284;8.032;2022-12-08T06:48:23;19.67;;;14.60;;
7621;SDS011;3852;52.284;8.032;2022-12-08T06:50:50;22.20;;;15.60;;
7621;SDS011;3852;52.284;8.032;2022-12-08T06:53:16;22.37;;;15.37;;
7621;SDS011;3852;52.284;8.032;2022-12-08T06:55:45;22.33;;;15.47;;
7621;SDS011;3852;52.284;8.032;2022-12-08T06:58:16;23.40;;;15.97;;
7621;SDS011;3852;52.284;8.032;2022-12-08T07:00:43;23.37;;;16.00;;
7621;SDS011;3852;52.284;8.032;2022-12-08T07:03:09;24.50;;;16.30;;
7621;SDS011;3852;52.284;8.032;2022-12-08T07:05:37;21.93;;;15.47;;
7621;SDS011;3852;52.284;8.032;2022-12-08T07:08:03;23.67;;;15.77;;
7621;SDS011;3852;52.284;8.032;2022-12-08T07:10:31;22.63;;;15.63;;
7621;SDS011;3852;52.284;8.032;2022-12-08T07:12:57;22.20;;;14.83;;
7621;SDS011;3852;52.284;8.032;2022-12-08T07:15:23;22.50;;;15.90;;
7621;SDS011;3852;52.284;8.032;2022-12-08T07:17:49;22.10;;;15.70;;
7621;SDS011;3852;52.284;8.032;2022-12-08T07:20:15;21.93;;;15.47;;
7621;SDS011;3852;52.284;8.032;2022-12-08T07:22:46;25.07;;;16.83;;
7621;SDS011;3852;52.284;8.032;2022-12-08T07:25:16;23.70;;;16.33;;
7621;SDS011;3852;52.284;8.032;2022-12-08T07:27:43;21.70;;;15.60;;
7621;SDS011;3852;52.284;8.032;2022-12-08T07:30:09;23.57;;;16.33;;
7621;SDS011;3852;52.284;8.032;2022-12-08T07:32:36;22.17;;;15.73;;
7621;SDS011;3852;52.284;8.032;2022-12-08T07:35:04;22.70;;;16.10;;
7621;SDS011;3852;52.284;8.032;2022-12-08T07:37:32;22.73;;;16.10;;
7621;SDS011;3852;52.284;8.032;2022-12-08T07:39:59;26.13;;;16.50;;
7621;SDS011;3852;52.284;8.032;2022-12-08T07:42:24;26.03;;;16.37;;
7621;SDS011;3852;52.284;8.032;2022-12-08T07:44:50;24.00;;;17.03;;
7621;SDS011;3852;52.284;8.032;2022-12-08T07:47:16;31.63;;;17.83;;
7621;SDS011;3852;52.284;8.032;2022-12-08T07:49:42;23.67;;;16.23;;
7621;SDS011;3852;52.284;8.032;2022-12-08T07:52:08;25.87;;;17.00;;
7621;SDS011;3852;52.284;8.032;2022-12-08T07:54:33;24.10;;;16.20;;
7621;SDS011;3852;52.284;8.032;2022-12-08T07:56:59;25.20;;;17.17;;
7621;SDS011;3852;52.284;8.032;2022-12-08T07:59:27;26.23;;;17.23;;
7621;SDS011;3852;52.284;8.032;2022-12-08T08:01:53;23.47;;;16.40;;
7621;SDS011;3852;52.284;8.032;2022-12-08T08:04:19;26.60;;;17.03;;
7621;SDS011;3852;52.284;8.032;2022-12-08T08:06:45;25.50;;;16.60;;
7621;SDS011;3852;52.284;8.032;2022-12-08T08:09:11;26.20;;;16.83;;
7621;SDS011;3852;52.284;8.032;2022-12-08T08:11:36;24.37;;;15.37;;
7621;SDS011;3852;52.284;8.032;2022-12-08T08:14:02;22.27;;;14.87;;
7621;SDS011;3852;52.284;8.032;2022-12-08T08:16:28;22.20;;;14.73;;
7621;SDS011;3852;52.284;8.032;2022-12-08T08:18:56;21.37;;;14.83;;
7621;SDS011;3852;52.284;8.032;2022-12-08T08:21:22;21.07;;;13.70;;
7621;SDS011;3852;52.284;8.032;2022-12-08T08:23:48;22.13;;;14.50;;
7621;SDS011;3852;52.284;8.032;2022-12-08T08:26:14;20.27;;;13.60;;
7621;SDS011;3852;52.284;8.032;2022-12-08T08:28:39;17.97;;;12.77;;
7621;SDS011;3852;52.284;8.032;2022-12-08T08:31:07;19.43;;;12.27;;
7621;SDS011;3852;52.284;8.032;2022-12-08T08:33:33;18.23;;;12.37;;
7621;SDS011;3852;52.284;8.032;2022-12-08T08:35:59;19.70;;;12.97;;
7621;SDS011;3852;52.284;8.032;2022-12-08T08:38:25;19.40;;;12.03;;
7621;SDS011;3852;52.284;8.032;2022-12-08T08:40:51;17.60;;;12.43;;
7621;SDS011;3852;52.284;8.032;2022-12-08T08:43:17;20.20;;;13.13;;
7621;SDS011;3852;52.284;8.032;2022-12-08T08:46:01;21.93;;;13.43;;
7621;SDS011;3852;52.284;8.032;2022-12-08T08:48:28;18.37;;;11.83;;
7621;SDS011;3852;52.284;8.032;2022-12-08T08:50:56;23.90;;;13.33;;
7621;SDS011;3852;52.284;8.032;2022-12-08T08:53:23;21.57;;;13.63;;
7621;SDS011;3852;52.284;8.032;2022-12-08T08:55:49;19.30;;;13.10;;
7621;SDS011;3852;52.284;8.032;2022-12-08T08:58:16;20.40;;;13.17;;
7621;SDS011;3852;52.284;8.032;2022-12-08T09:00:42;23.20;;;12.87;;
7621;SDS011;3852;52.284;8.032;2022-12-08T09:03:07;20.70;;;14.03;;
7621;SDS011;3852;52.284;8.032;2022-12-08T09:05:33;20.57;;;12.83;;
7621;SDS011;3852;52.284;8.032;2022-12-08T09:08:02;20.60;;;13.83;;
7621;SDS011;3852;52.284;8.032;2022-12-08T09:10:28;19.33;;;12.67;;
7621;SDS011;3852;52.284;8.032;2022-12-08T09:12:53;23.20;;;14.73;;
7621;SDS011;3852;52.284;8.032;2022-12-08T09:15:19;21.60;;;13.73;;
7621;SDS011;3852;52.284;8.032;2022-12-08T09:17:47;22.73;;;13.83;;
7621;SDS011;3852;52.284;8.032;2022-12-08T09:20:13;20.90;;;13.63;;
7621;SDS011;3852;52.284;8.032;2022-12-08T09:22:39;25.60;;;14.87;;
7621;SDS011;3852;52.284;8.032;2022-12-08T09:25:05;23.70;;;14.27;;
7621;SDS011;3852;52.284;8.032;2022-12-08T09:27:31;22.60;;;13.33;;
7621;SDS011;3852;52.284;8.032;2022-12-08T09:29:57;19.73;;;13.13;;
7621;SDS011;3852;52.284;8.032;2022-12-08T09:32:22;24.07;;;13.27;;
7621;SDS011;3852;52.284;8.032;2022-12-08T09:34:48;18.27;;;12.07;;
7621;SDS011;3852;52.284;8.032;2022-12-08T09:37:14;19.90;;;12.23;;
7621;SDS011;3852;52.284;8.032;2022-12-08T09:39:40;18.03;;;12.53;;
7621;SDS011;3852;52.284;8.032;2022-12-08T09:42:06;19.87;;;12.97;;
7621;SDS011;3852;52.284;8.032;2022-12-08T09:44:48;20.73;;;12.23;;
7621;SDS011;3852;52.284;8.032;2022-12-08T09:47:37;18.27;;;12.27;;
7621;SDS011;3852;52.284;8.032;2022-12-08T09:53:26;15.50;;;11.30;;
7621;SDS011;3852;52.284;8.032;2022-12-08T09:58:52;15.80;;;10.87;;
7621;SDS011;3852;52.284;8.032;2022-12-08T10:01:29;16.83;;;10.97;;
7621;SDS011;3852;52.284;8.032;2022-12-08T10:03:59;16.13;;;10.83;;
7621;SDS011;3852;52.284;8.032;2022-12-08T10:09:30;15.10;;;9.97;;
7621;SDS011;3852;52.284;8.032;2022-12-08T10:17:45;17.47;;;10.33;;
7621;SDS011;3852;52.284;8.032;2022-12-08T10:22:52;14.63;;;10.60;;
7621;SDS011;3852;52.284;8.032;2022-12-08T10:25:38;14.30;;;9.67;;
7621;SDS011;3852;52.284;8.032;2022-12-08T10:28:13;15.50;;;9.73;;
7621;SDS011;3852;52.284;8.032;2022-12-08T10:30:40;14.20;;;9.30;;
7621;SDS011;3852;52.284;8.032;2022-12-08T10:33:09;14.13;;;9.67;;
7621;SDS011;3852;52.284;8.032;2022-12-08T10:35:45;13.13;;;8.70;;
7621;SDS011;3852;52.284;8.032;2022-12-08T10:38:30;13.07;;;8.60;;
7621;SDS011;3852;52.284;8.032;2022-12-08T10:43:58;11.33;;;8.03;;
7621;SDS011;3852;52.284;8.032;2022-12-08T10:46:25;10.90;;;8.27;;
7621;SDS011;3852;52.284;8.032;2022-12-08T10:48:53;11.03;;;7.70;;
7621;SDS011;3852;52.284;8.032;2022-12-08T10:51:45;11.37;;;7.63;;
7621;SDS011;3852;52.284;8.032;2022-12-08T10:54:27;10.73;;;7.33;;
7621;SDS011;3852;52.284;8.032;2022-12-08T10:56:59;11.60;;;7.50;;
7621;SDS011;3852;52.284;8.032;2022-12-08T10:59:25;10.07;;;7.70;;
7621;SDS011;3852;52.284;8.032;2022-12-08T11:01:52;12.70;;;9.00;;
7621;SDS011;3852;52.284;8.032;2022-12-08T11:04:20;11.97;;;8.57;;
7621;SDS011;3852;52.284;8.032;2022-12-08T11:06:58;13.93;;;8.77;;
7621;SDS011;3852;52.284;8.032;2022-12-08T11:09:35;10.87;;;8.00;;
7621;SDS011;3852;52.284;8.032;2022-12-08T11:12:16;10.63;;;8.27;;
7621;SDS011;3852;52.284;8.032;2022-12-08T11:17:17;10.93;;;8.27;;
7621;SDS011;3852;52.284;8.032;2022-12-08T11:22:44;11.80;;;8.10;;
7621;SDS011;3852;52.284;8.032;2022-12-08T11:25:27;12.30;;;8.27;;
7621;SDS011;3852;52.284;8.032;2022-12-08T11:27:56;9.07;;;7.20;;
7621;SDS011;3852;52.284;8.032;2022-12-08T11:30:26;10.30;;;7.73;;
7621;SDS011;3852;52.284;8.032;2022-12-08T11:33:04;9.63;;;6.87;;
7621;SDS011;3852;52.284;8.032;2022-12-08T11:35:43;7.77;;;5.70;;
7621;SDS011;3852;52.284;8.032;2022-12-08T11:38:17;6.17;;;5.57;;
7621;SDS011;3852;52.284;8.032;2022-12-08T11:40:49;8.17;;;5.93;;
7621;SDS011;3852;52.284;8.032;2022-12-08T11:46:04;7.67;;;5.83;;
7621;SDS011;3852;52.284;8.032;2022-12-08T11:51:38;7.60;;;6.23;;
7621;SDS011;3852;52.284;8.032;2022-12-08T11:54:32;6.93;;;5.80;;
7621;SDS011;3852;52.284;8.032;2022-12-08T11:57:45;6.83;;;6.00;;
7621;SDS011;3852;52.284;8.032;2022-12-08T12:00:13;7.07;;;5.47;;
7621;SDS011;3852;52.284;8.032;2022-12-08T12:02:46;6.70;;;5.80;;
7621;SDS011;3852;52.284;8.032;2022-12-08T12:08:06;8.30;;;5.77;;
7621;SDS011;3852;52.284;8.032;2022-12-08T12:10:47;7.57;;;5.83;;
7621;SDS011;3852;52.284;8.032;2022-12-08T12:13:34;6.97;;;5.47;;
7621;SDS011;3852;52.284;8.032;2022-12-08T12:16:58;6.20;;;5.13;;
7621;SDS011;3852;52.284;8.032;2022-12-08T12:19:32;5.83;;;5.20;;
7621;SDS011;3852;52.284;8.032;2022-12-08T12:22:35;8.87;;;5.20;;
7621;SDS011;3852;52.284;8.032;2022-12-08T12:24:58;5.23;;;4.60;;
7621;SDS011;3852;52.284;8.032;2022-12-08T12:27:28;9.67;;;5.57;;
7621;SDS011;3852;52.284;8.032;2022-12-08T12:30:07;5.07;;;4.43;;
7621;SDS011;3852;52.284;8.032;2022-12-08T12:32:54;6.53;;;5.17;;
7621;SDS011;3852;52.284;8.032;2022-12-08T12:37:59;6.80;;;5.10;;
7621;SDS011;3852;52.284;8.032;2022-12-08T12:41:00;7.03;;;5.30;;
7621;SDS011;3852;52.284;8.032;2022-12-08T12:43:33;8.60;;;5.20;;
7621;SDS011;3852;52.284;8.032;2022-12-08T12:48:51;6.40;;;5.50;;
7621;SDS011;3852;52.284;8.032;2022-12-08T12:54:38;7.30;;;5.60;;
7621;SDS011;3852;52.284;8.032;2022-12-08T12:59:43;10.20;;;5.40;;
7621;SDS011;3852;52.284;8.032;2022-12-08T13:05:09;6.93;;;5.10;;
7621;SDS011;3852;52.284;8.032;2022-12-08T13:07:56;6.90;;;4.73;;
7621;SDS011;3852;52.284;8.032;2022-12-08T13:10:55;6.40;;;4.80;;
7621;SDS011;3852;52.284;8.032;2022-12-08T13:13:34;6.73;;;5.17;;
7621;SDS011;3852;52.284;8.032;2022-12-08T13:34:20;7.43;;;4.90;;
7621;SDS011;3852;52.284;8.032;2022-12-08T13:42:49;6.50;;;5.20;;
7621;SDS011;3852;52.284;8.032;2022-12-08T13:45:55;6.83;;;4.87;;
7621;SDS011;3852;52.284;8.032;2022-12-08T13:48:27;6.37;;;4.90;;
7621;SDS011;3852;52.284;8.032;2022-12-08T13:51:42;6.13;;;5.17;;
7621;SDS011;3852;52.284;8.032;2022-12-08T13:53:57;7.37;;;5.30;;
7621;SDS011;3852;52.284;8.032;2022-12-08T13:56:44;6.47;;;4.63;;
7621;SDS011;3852;52.284;8.032;2022-12-08T13:59:24;7.87;;;4.83;;
7621;SDS011;3852;52.284;8.032;2022-12-08T14:01:55;6.83;;;4.90;;
7621;SDS011;3852;52.284;8.032;2022-12-08T14:04:26;8.30;;;5.13;;
7621;SDS011;3852;52.284;8.032;2022-12-08T14:06:56;7.10;;;5.57;;
7621;SDS011;3852;52.284;8.032;2022-12-08T14:09:26;7.93;;;5.37;;
7621;SDS011;3852;52.284;8.032;2022-12-08T14:12:02;6.83;;;5.47;;
7621;SDS011;3852;52.284;8.032;2022-12-08T14:14:33;5.43;;;4.67;;
7621;SDS011;3852;52.284;8.032;2022-12-08T14:17:13;6.90;;;5.60;;
7621;SDS011;3852;52.284;8.032;2022-12-08T14:19:43;7.40;;;5.60;;
7621;SDS011;3852;52.284;8.032;2022-12-08T14:22:17;7.20;;;5.37;;
7621;SDS011;3852;52.284;8.032;2022-12-08T14:24:44;7.87;;;5.67;;
7621;SDS011;3852;52.284;8.032;2022-12-08T14:27:19;7.90;;;5.90;;
7621;SDS011;3852;52.284;8.032;2022-12-08T14:29:49;7.27;;;5.87;;
7621;SDS011;3852;52.284;8.032;2022-12-08T14:33:03;6.97;;;6.00;;
7621;SDS011;3852;52.284;8.032;2022-12-08T14:35:23;9.90;;;6.57;;
7621;SDS011;3852;52.284;8.032;2022-12-08T14:37:54;9.30;;;6.93;;
7621;SDS011;3852;52.284;8.032;2022-12-08T14:40:24;9.50;;;6.20;;
7621;SDS011;3852;52.284;8.032;2022-12-08T14:45:54;8.43;;;5.77;;
7621;SDS011;3852;52.284;8.032;2022-12-08T14:48:45;8.30;;;5.67;;
7621;SDS011;3852;52.284;8.032;2022-12-08T14:53:59;6.80;;;5.50;;
7621;SDS011;3852;52.284;8.032;2022-12-08T14:56:53;7.13;;;5.70;;
7621;SDS011;3852;52.284;8.032;2022-12-08T15:01:53;10.67;;;6.40;;
7621;SDS011;3852;52.284;8.032;2022-12-08T15:05:00;7.63;;;6.67;;
7621;SDS011;3852;52.284;8.032;2022-12-08T15:12:57;9.47;;;6.30;;
7621;SDS011;3852;52.284;8.032;2022-12-08T15:15:25;10.63;;;6.73;;
7621;SDS011;3852;52.284;8.032;2022-12-08T15:18:02;8.93;;;6.67;;
7621;SDS011;3852;52.284;8.032;2022-12-08T15:20:44;11.13;;;7.33;;
7621;SDS011;3852;52.284;8.032;2022-12-08T15:23:19;9.27;;;7.27;;
7621;SDS011;3852;52.284;8.032;2022-12-08T15:25:55;10.53;;;7.57;;
7621;SDS011;3852;52.284;8.032;2022-12-08T15:28:23;9.03;;;6.87;;
7621;SDS011;3852;52.284;8.032;2022-12-08T15:30:51;9.97;;;7.30;;
7621;SDS011;3852;52.284;8.032;2022-12-08T15:33:19;11.30;;;8.50;;
7621;SDS011;3852;52.284;8.032;2022-12-08T15:35:47;10.43;;;7.33;;
7621;SDS011;3852;52.284;8.032;2022-12-08T15:38:32;11.60;;;7.80;;
7621;SDS011;3852;52.284;8.032;2022-12-08T15:40:58;9.70;;;6.67;;
7621;SDS011;3852;52.284;8.032;2022-12-08T15:43:23;8.10;;;6.43;;
7621;SDS011;3852;52.284;8.032;2022-12-08T15:45:49;7.93;;;6.53;;
7621;SDS011;3852;52.284;8.032;2022-12-08T15:48:26;7.23;;;6.10;;
7621;SDS011;3852;52.284;8.032;2022-12-08T15:50:54;7.70;;;5.57;;
7621;SDS011;3852;52.284;8.032;2022-12-08T15:53:20;8.87;;;6.10;;
7621;SDS011;3852;52.284;8.032;2022-12-08T15:55:46;9.03;;;6.67;;
7621;SDS011;3852;52.284;8.032;2022-12-08T15:58:22;8.17;;;5.90;;
7621;SDS011;3852;52.284;8.032;2022-12-08T16:00:49;9.47;;;6.37;;
7621;SDS011;3852;52.284;8.032;2022-12-08T16:05:44;8.43;;;6.00;;
7621;SDS011;3852;52.284;8.032;2022-12-08T16:08:13;10.80;;;6.27;;
7621;SDS011;3852;52.284;8.032;2022-12-08T16:10:40;8.43;;;5.80;;
7621;SDS011;3852;52.284;8.032;2022-12-08T16:13:18;8.40;;;6.17;;
7621;SDS011;3852;52.284;8.032;2022-12-08T16:16:04;7.87;;;6.27;;
7621;SDS011;3852;52.284;8.032;2022-12-08T16:18:33;10.23;;;6.43;;
7621;SDS011;3852;52.284;8.032;2022-12-08T16:21:02;8.13;;;5.57;;
7621;SDS011;3852;52.284;8.032;2022-12-08T16:23:37;9.30;;;6.13;;
7621;SDS011;3852;52.284;8.032;2022-12-08T16:26:03;7.70;;;6.00;;
7621;SDS011;3852;52.284;8.032;2022-12-08T16:28:29;10.37;;;6.60;;
7621;SDS011;3852;52.284;8.032;2022-12-08T16:30:54;10.47;;;6.23;;
7621;SDS011;3852;52.284;8.032;2022-12-08T16:33:23;7.90;;;6.37;;
7621;SDS011;3852;52.284;8.032;2022-12-08T16:35:49;9.33;;;6.17;;
7621;SDS011;3852;52.284;8.032;2022-12-08T16:38:15;8.93;;;6.27;;
7621;SDS011;3852;52.284;8.032;2022-12-08T16:40:45;7.97;;;6.50;;
7621;SDS011;3852;52.284;8.032;2022-12-08T16:43:32;8.03;;;6.70;;
7621;SDS011;3852;52.284;8.032;2022-12-08T16:45:59;9.43;;;7.03;;
7621;SDS011;3852;52.284;8.032;2022-12-08T16:48:26;11.40;;;7.50;;
7621;SDS011;3852;52.284;8.032;2022-12-08T16:50:52;10.07;;;6.27;;
7621;SDS011;3852;52.284;8.032;2022-12-08T16:53:18;9.07;;;6.87;;
7621;SDS011;3852;52.284;8.032;2022-12-08T16:55:45;9.80;;;6.70;;
7621;SDS011;3852;52.284;8.032;2022-12-08T16:58:12;8.93;;;7.03;;
7621;SDS011;3852;52.284;8.032;2022-12-08T17:00:39;10.07;;;6.90;;
7621;SDS011;3852;52.284;8.032;2022-12-08T17:03:05;7.73;;;6.17;;
7621;SDS011;3852;52.284;8.032;2022-12-08T17:05:32;8.23;;;5.97;;
7621;SDS011;3852;52.284;8.032;2022-12-08T17:07:59;9.50;;;7.00;;
7621;SDS011;3852;52.284;8.032;2022-12-08T17:10:28;8.50;;;6.80;;
7621;SDS011;3852;52.284;8.032;2022-12-08T17:12:58;7.93;;;6.43;;
7621;SDS011;3852;52.284;8.032;2022-12-08T17:15:25;8.90;;;6.70;;
7621;SDS011;3852;52.284;8.032;2022-12-08T17:17:52;8.90;;;6.50;;
7621;SDS011;3852;52.284;8.032;2022-12-08T17:20:22;8.37;;;6.43;;
7621;SDS011;3852;52.284;8.032;2022-12-08T17:22:55;7.93;;;6.47;;
7621;SDS011;3852;52.284;8.032;2022-12-08T17:25:22;8.40;;;6.70;;